createdAt,value
2023-01-21T00:00:57.395Z,116.95
2023-01-21T00:04:01.066Z,99.32
2023-01-21T00:07:06.439Z,107.35
2023-01-21T00:10:11.145Z,146.45
2023-01-21T00:13:14.621Z,96.82
2023-01-21T00:16:18.162Z,107.00
2023-01-21T00:19:21.557Z,102.43
2023-01-21T00:22:30.736Z,93.47
2023-01-21T00:25:34.236Z,92.43
2023-01-21T00:28:38.332Z,101.93
2023-01-21T00:31:41.922Z,135.35
2023-01-21T00:34:45.296Z,91.97
2023-01-21T00:37:52.143Z,98.13
2023-01-21T00:41:00.826Z,128.85
2023-01-21T00:44:05.216Z,112.07
2023-01-21T00:47:08.645Z,144.60
2023-01-21T00:50:12.797Z,116.63
2023-01-21T00:53:17.579Z,117.53
2023-01-21T00:56:21.207Z,107.47
2023-01-21T00:59:25.503Z,93.22
2023-01-21T01:02:29.027Z,114.20
2023-01-21T01:05:33.281Z,135.07
2023-01-21T01:08:39.022Z,136.18
2023-01-21T01:11:42.598Z,122.70
2023-01-21T01:14:45.941Z,133.63
2023-01-21T01:17:49.410Z,113.05
2023-01-21T01:20:52.937Z,102.75
2023-01-21T01:24:00.693Z,95.32
2023-01-21T01:27:04.096Z,90.38
2023-01-21T01:30:09.027Z,95.82
2023-01-21T01:33:12.421Z,88.18
2023-01-21T01:36:17.728Z,98.13
2023-01-21T01:39:22.545Z,89.03
2023-01-21T01:42:26.279Z,81.30
2023-01-21T01:45:29.720Z,81.25
2023-01-21T01:48:33.799Z,76.88
2023-01-21T01:51:44.234Z,76.20
2023-01-21T01:54:53.825Z,77.10
2023-01-21T01:57:58.110Z,75.88
2023-01-21T02:01:01.606Z,63.72
2023-01-21T02:04:09.441Z,62.92
2023-01-21T02:07:13.339Z,62.35
2023-01-21T02:10:21.651Z,59.28
2023-01-21T02:13:27.610Z,54.40
2023-01-21T02:17:05.840Z,51.65
2023-01-21T02:20:31.552Z,55.28
2023-01-21T02:23:58.411Z,47.13
2023-01-21T02:27:32.675Z,41.60
2023-01-21T02:30:48.256Z,43.88
2023-01-21T02:34:13.816Z,40.72
2023-01-21T02:37:25.707Z,45.78
2023-01-21T02:40:38.231Z,51.28
2023-01-21T02:43:51.493Z,49.75
2023-01-21T02:47:02.578Z,42.78
2023-01-21T02:50:15.504Z,48.70
2023-01-21T02:53:25.634Z,47.20
2023-01-21T02:56:29.033Z,41.53
2023-01-21T02:59:33.758Z,45.00
2023-01-21T03:03:02.015Z,45.45
2023-01-21T03:06:44.241Z,46.90
2023-01-21T03:09:49.564Z,47.45
2023-01-21T03:13:01.320Z,50.35
2023-01-21T03:16:25.943Z,50.60
2023-01-21T03:19:36.778Z,46.58
2023-01-21T03:22:41.222Z,57.28
2023-01-21T03:25:48.631Z,47.35
2023-01-21T03:28:56.224Z,49.88
2023-01-21T03:32:05.145Z,46.53
2023-01-21T03:35:11.584Z,46.92
2023-01-21T03:38:19.452Z,49.97
2023-01-21T03:41:32.072Z,52.28
2023-01-21T03:44:36.212Z,50.72
2023-01-21T03:47:42.392Z,54.78
2023-01-21T03:50:51.591Z,49.40
2023-01-21T03:53:57.788Z,49.20
2023-01-21T03:57:02.529Z,49.20
2023-01-21T04:00:08.144Z,48.85
2023-01-21T04:03:11.615Z,59.53
2023-01-21T04:06:15.823Z,53.90
2023-01-21T04:09:19.192Z,52.33
2023-01-21T04:12:24.000Z,51.92
2023-01-21T04:15:27.679Z,47.83
2023-01-21T04:18:31.158Z,51.53
2023-01-21T04:21:34.608Z,53.75
2023-01-21T04:24:38.060Z,52.63
2023-01-21T04:27:42.823Z,51.13
2023-01-21T04:34:18.520Z,59.58
2023-01-21T04:37:21.974Z,56.38
2023-01-21T04:40:25.411Z,54.58
2023-01-21T04:43:29.035Z,60.28
2023-01-21T04:46:32.657Z,53.00
2023-01-21T04:49:37.787Z,55.03
2023-01-21T04:52:41.901Z,61.60
2023-01-21T04:55:45.362Z,55.72
2023-01-21T04:58:48.778Z,53.00
2023-01-21T05:01:52.434Z,60.10
2023-01-21T05:04:57.292Z,57.97
2023-01-21T05:08:00.759Z,55.05
2023-01-21T05:11:04.246Z,53.10
2023-01-21T05:14:07.630Z,56.35
2023-01-21T05:17:11.029Z,65.13
2023-01-21T05:20:16.348Z,61.10
2023-01-21T05:23:19.887Z,64.65
2023-01-21T05:26:23.570Z,66.97
2023-01-21T05:29:26.986Z,61.22
2023-01-21T05:32:30.349Z,57.20
2023-01-21T05:35:36.332Z,57.22
2023-01-21T05:38:40.021Z,55.80
2023-01-21T05:41:43.556Z,56.50
2023-01-21T05:44:46.998Z,59.05
2023-01-21T05:47:50.379Z,53.15
2023-01-21T05:50:58.045Z,54.00
2023-01-21T05:54:01.967Z,53.83
2023-01-21T05:57:05.501Z,60.45
2023-01-21T06:00:10.381Z,57.72
2023-01-21T06:03:13.863Z,56.90
2023-01-21T06:06:18.662Z,55.45
2023-01-21T06:09:22.074Z,53.28
2023-01-21T06:12:25.591Z,57.38
2023-01-21T06:15:29.658Z,59.83
2023-01-21T06:18:33.233Z,62.42
2023-01-21T06:21:38.072Z,53.42
2023-01-21T06:24:41.588Z,61.15
2023-01-21T06:27:44.968Z,58.58
2023-01-21T06:30:48.504Z,60.58
2023-01-21T06:33:52.021Z,55.10
2023-01-21T06:36:56.806Z,53.25
2023-01-21T06:40:00.196Z,53.83
2023-01-21T06:43:04.015Z,54.92
2023-01-21T06:46:07.616Z,60.65
2023-01-21T06:49:11.021Z,54.22
2023-01-21T06:52:15.798Z,50.65
2023-01-21T06:55:20.478Z,53.35
2023-01-21T06:58:24.319Z,55.38
2023-01-21T07:01:29.284Z,51.25
2023-01-21T07:04:35.864Z,54.45
2023-01-21T07:07:40.736Z,53.65
2023-01-21T07:10:47.576Z,50.08
2023-01-21T07:13:51.115Z,52.00
2023-01-21T07:16:55.185Z,54.63
2023-01-21T07:19:58.613Z,47.80
2023-01-21T07:23:03.341Z,45.50
2023-01-21T07:26:08.271Z,48.90
2023-01-21T07:34:50.016Z,48.40
2023-01-21T07:37:53.377Z,46.17
2023-01-21T07:40:58.148Z,45.75
2023-01-21T07:44:01.571Z,45.53
2023-01-21T07:47:06.553Z,46.28
2023-01-21T07:50:10.984Z,44.63
2023-01-21T07:53:14.758Z,42.22
2023-01-21T07:56:20.423Z,47.20
2023-01-21T07:59:23.984Z,46.97
2023-01-21T08:02:28.346Z,40.67
2023-01-21T08:05:31.847Z,39.55
2023-01-21T08:08:36.048Z,45.67
2023-01-21T08:11:41.189Z,39.42
2023-01-21T08:14:44.816Z,38.50
2023-01-21T08:17:48.843Z,39.83
2023-01-21T08:20:56.598Z,37.65
2023-01-21T08:24:00.410Z,41.42
2023-01-21T08:27:05.336Z,37.60
2023-01-21T08:30:11.911Z,37.67
2023-01-21T08:33:16.379Z,41.63
2023-01-21T08:36:20.515Z,45.95
2023-01-21T08:39:23.972Z,44.47
2023-01-21T08:42:28.845Z,36.85
2023-01-21T08:45:35.316Z,36.13
2023-01-21T08:48:39.218Z,34.80
2023-01-21T08:51:44.261Z,34.80
2023-01-21T08:54:50.489Z,40.35
2023-01-21T08:57:56.561Z,37.58
2023-01-21T09:01:00.479Z,31.70
2023-01-21T09:04:04.403Z,33.53
2023-01-21T09:07:07.822Z,33.20
2023-01-21T09:10:12.025Z,39.67
2023-01-21T09:13:17.338Z,37.22
2023-01-21T09:16:23.657Z,37.08
2023-01-21T09:19:27.519Z,37.67
2023-01-21T09:22:31.027Z,36.85
2023-01-21T09:25:35.379Z,34.78
2023-01-21T09:28:42.361Z,36.15
2023-01-21T09:31:45.852Z,30.27
2023-01-21T09:34:49.441Z,30.80
2023-01-21T09:37:52.855Z,33.75
2023-01-21T09:41:14.183Z,34.17
2023-01-21T09:44:26.333Z,29.83
2023-01-21T09:47:34.914Z,34.05
2023-01-21T09:50:41.327Z,36.25
2023-01-21T09:53:51.644Z,30.50
2023-01-21T09:57:36.976Z,36.35
2023-01-21T10:00:46.993Z,33.67
2023-01-21T10:03:56.583Z,32.80
2023-01-21T10:07:03.146Z,30.45
2023-01-21T10:10:20.326Z,29.20
2023-01-21T10:13:44.355Z,31.25
2023-01-21T10:17:01.139Z,35.10
2023-01-21T10:20:14.568Z,29.30
2023-01-21T10:23:23.674Z,37.65
2023-01-21T10:26:29.275Z,34.95
2023-01-21T10:29:42.744Z,43.22
2023-01-21T10:34:20.412Z,29.83
2023-01-21T10:37:33.846Z,36.35
2023-01-21T10:40:46.435Z,32.60
2023-01-21T10:43:57.380Z,30.52
2023-01-21T10:47:07.874Z,16.45
2023-01-21T10:50:29.745Z,20.05
2023-01-21T10:53:39.890Z,22.85
2023-01-21T10:56:49.920Z,21.80
2023-01-21T11:00:21.790Z,24.67
2023-01-21T11:03:34.085Z,25.30
2023-01-21T11:06:39.852Z,24.27
2023-01-21T11:09:46.710Z,21.73
2023-01-21T11:12:50.586Z,19.67
2023-01-21T11:15:55.937Z,19.10
2023-01-21T11:18:59.612Z,23.38
2023-01-21T11:22:07.356Z,20.95
2023-01-21T11:25:26.939Z,24.63
2023-01-21T11:28:31.570Z,19.00
2023-01-21T11:31:35.578Z,17.95
2023-01-21T11:34:45.449Z,17.30
2023-01-21T11:37:50.315Z,19.50
2023-01-21T11:41:05.284Z,14.40
2023-01-21T11:44:11.481Z,14.45
2023-01-21T11:47:29.187Z,16.10
2023-01-21T11:50:35.720Z,18.08
2023-01-21T11:53:41.308Z,15.13
2023-01-21T11:56:55.666Z,15.98
2023-01-21T12:00:07.677Z,14.50
2023-01-21T12:03:18.768Z,14.95
2023-01-21T12:06:24.541Z,18.38
2023-01-21T12:09:30.624Z,14.35
2023-01-21T12:12:46.685Z,15.95
2023-01-21T12:16:04.752Z,17.02
2023-01-21T12:19:45.908Z,12.43
2023-01-21T12:23:19.983Z,14.05
2023-01-21T12:26:38.601Z,13.40
2023-01-21T12:29:55.284Z,15.05
2023-01-21T12:33:04.398Z,14.23
2023-01-21T12:36:15.447Z,15.18
2023-01-21T12:39:22.671Z,15.43
2023-01-21T12:42:34.839Z,11.83
2023-01-21T12:45:42.482Z,14.77
2023-01-21T12:48:51.915Z,13.90
2023-01-21T12:52:00.721Z,16.50
2023-01-21T12:55:15.007Z,16.92
2023-01-21T12:58:22.512Z,17.20
2023-01-21T13:01:43.795Z,12.57
2023-01-21T13:04:55.464Z,21.38
2023-01-21T13:08:06.151Z,54.65
2023-01-21T13:11:19.793Z,18.98
2023-01-21T13:14:31.088Z,16.65
2023-01-21T13:17:36.349Z,17.65
2023-01-21T13:20:44.814Z,14.52
2023-01-21T13:23:52.455Z,15.77
2023-01-21T13:27:07.238Z,19.52
2023-01-21T13:30:24.885Z,19.02
2023-01-21T13:36:48.385Z,15.50
2023-01-21T13:39:55.003Z,15.40
2023-01-21T13:43:11.746Z,13.35
2023-01-21T13:46:29.976Z,16.92
2023-01-21T13:49:53.688Z,14.45
2023-01-21T13:53:27.486Z,17.58
2023-01-21T13:56:41.625Z,14.38
2023-01-21T13:59:50.666Z,15.27
2023-01-21T14:03:02.278Z,18.63
2023-01-21T14:06:11.104Z,15.80
2023-01-21T14:09:24.539Z,17.13
2023-01-21T14:12:45.470Z,16.75
2023-01-21T14:16:13.714Z,17.55
2023-01-21T14:19:36.906Z,24.47
2023-01-21T14:22:56.618Z,18.67
2023-01-21T14:26:16.277Z,20.13
2023-01-21T14:29:31.055Z,18.92
2023-01-21T14:32:41.879Z,20.73
2023-01-21T14:35:53.681Z,16.58
2023-01-21T14:39:08.549Z,20.08
2023-01-21T14:42:14.749Z,22.27
2023-01-21T14:45:22.043Z,19.73
2023-01-21T14:48:30.656Z,19.65
2023-01-21T14:51:37.615Z,19.73
2023-01-21T14:54:44.203Z,19.35
2023-01-21T14:57:49.111Z,19.27
2023-01-21T15:00:53.841Z,18.92
2023-01-21T15:03:59.161Z,15.65
2023-01-21T15:07:09.785Z,19.23
2023-01-21T15:10:18.887Z,17.77
2023-01-21T15:13:31.801Z,18.05
2023-01-21T15:16:37.428Z,18.58
2023-01-21T15:19:40.879Z,19.40
2023-01-21T15:22:46.800Z,17.05
2023-01-21T15:26:05.099Z,20.05
2023-01-21T15:29:33.989Z,20.98
2023-01-21T15:32:40.875Z,18.17
2023-01-21T15:35:44.739Z,20.95
2023-01-21T15:38:50.610Z,20.17
2023-01-21T15:42:06.281Z,18.23
2023-01-21T15:45:24.758Z,18.77
2023-01-21T15:48:48.877Z,18.85
2023-01-21T15:52:06.367Z,17.40
2023-01-21T15:55:30.411Z,17.17
2023-01-21T15:58:46.336Z,20.73
2023-01-21T16:02:13.551Z,19.75
2023-01-21T16:05:26.198Z,22.80
2023-01-21T16:08:44.201Z,24.23
2023-01-21T16:12:05.008Z,21.42
2023-01-21T16:15:16.392Z,19.90
2023-01-21T16:18:29.627Z,20.38
2023-01-21T16:21:35.341Z,21.85
2023-01-21T16:24:43.299Z,24.88
2023-01-21T16:27:49.590Z,25.52
2023-01-21T16:34:25.746Z,25.95
2023-01-21T16:37:31.299Z,25.67
2023-01-21T16:40:35.013Z,24.70
2023-01-21T16:43:44.525Z,23.95
2023-01-21T16:46:51.748Z,23.30
2023-01-21T16:49:56.576Z,28.20
2023-01-21T16:53:06.701Z,23.63
2023-01-21T16:56:25.560Z,21.75
2023-01-21T16:59:30.977Z,22.10
2023-01-21T17:02:35.342Z,23.00
2023-01-21T17:05:41.729Z,25.83
2023-01-21T17:08:48.192Z,22.10
2023-01-21T17:11:51.916Z,26.02
2023-01-21T17:14:59.314Z,27.95
2023-01-21T17:18:05.020Z,26.45
2023-01-21T17:21:12.924Z,26.05
2023-01-21T17:24:46.901Z,30.02
2023-01-21T17:27:51.640Z,28.38
2023-01-21T17:31:09.675Z,29.73
2023-01-21T17:34:22.170Z,26.23
2023-01-21T17:37:52.169Z,27.02
2023-01-21T17:41:02.074Z,30.52
2023-01-21T17:44:16.575Z,29.52
2023-01-21T17:47:24.687Z,26.40
2023-01-21T17:50:30.292Z,32.03
2023-01-21T17:53:41.245Z,33.33
2023-01-21T17:56:51.579Z,31.25
2023-01-21T17:59:55.024Z,28.08
2023-01-21T18:02:58.974Z,31.90
2023-01-21T18:06:03.405Z,34.90
2023-01-21T18:09:20.640Z,31.08
2023-01-21T18:12:23.987Z,32.90
2023-01-21T18:15:27.690Z,34.47
2023-01-21T18:18:33.501Z,34.30
2023-01-21T18:21:36.855Z,32.78
2023-01-21T18:24:41.806Z,35.55
2023-01-21T18:27:47.441Z,30.13
2023-01-21T18:30:51.907Z,29.02
2023-01-21T18:33:55.471Z,34.35
2023-01-21T18:36:59.023Z,37.03
2023-01-21T18:40:05.711Z,36.90
2023-01-21T18:43:10.567Z,40.63
2023-01-21T18:46:16.194Z,36.17
2023-01-21T18:49:21.552Z,36.95
2023-01-21T18:52:29.025Z,35.20
2023-01-21T18:55:33.971Z,35.88
2023-01-21T18:58:37.471Z,34.95
2023-01-21T19:01:41.090Z,34.00
2023-01-21T19:04:44.753Z,33.70
2023-01-21T19:07:48.562Z,36.47
2023-01-21T19:10:53.586Z,38.85
2023-01-21T19:13:57.028Z,35.58
2023-01-21T19:17:00.746Z,38.55
2023-01-21T19:20:04.369Z,35.50
2023-01-21T19:23:12.126Z,40.72
2023-01-21T19:26:17.286Z,34.22
2023-01-21T19:29:24.969Z,38.97
2023-01-21T19:32:28.387Z,37.60
2023-01-21T19:35:35.102Z,31.33
2023-01-21T19:38:38.915Z,37.33
2023-01-21T19:41:43.788Z,35.70
2023-01-21T19:44:47.366Z,37.50
2023-01-21T19:47:52.316Z,34.60
2023-01-21T19:50:55.679Z,38.05
2023-01-21T19:53:59.775Z,33.03
2023-01-21T19:57:05.262Z,33.63
2023-01-21T20:00:18.135Z,26.92
2023-01-21T20:03:23.246Z,33.38
2023-01-21T20:06:26.944Z,34.45
2023-01-21T20:09:30.400Z,29.65
2023-01-21T20:12:35.200Z,31.73
2023-01-21T20:15:39.097Z,33.50
2023-01-21T20:18:43.496Z,27.23
2023-01-21T20:21:59.968Z,28.17
2023-01-21T20:25:05.603Z,33.80
2023-01-21T20:28:18.327Z,27.75
2023-01-21T20:31:21.998Z,26.15
2023-01-21T20:34:27.654Z,29.98
2023-01-21T20:37:31.123Z,29.92
2023-01-21T20:40:34.790Z,27.02
2023-01-21T20:43:39.969Z,30.48
2023-01-21T20:46:45.529Z,27.63
2023-01-21T20:49:48.943Z,25.52
2023-01-21T20:52:55.044Z,30.25
2023-01-21T20:56:02.500Z,29.25
2023-01-21T20:59:07.263Z,29.50
2023-01-21T21:02:12.820Z,27.52
2023-01-21T21:05:18.456Z,28.25
2023-01-21T21:08:23.206Z,28.10
2023-01-21T21:11:26.919Z,26.90
2023-01-21T21:14:31.989Z,25.17
2023-01-21T21:17:35.413Z,28.85
2023-01-21T21:20:39.941Z,28.50
2023-01-21T21:23:46.532Z,23.70
2023-01-21T21:26:50.292Z,37.75
2023-01-21T21:29:59.221Z,30.33
2023-01-21T21:33:03.114Z,36.67
2023-01-21T21:36:11.513Z,31.05
2023-01-21T21:39:19.384Z,30.25
2023-01-21T21:42:40.186Z,22.90
2023-01-21T21:45:59.221Z,23.40
2023-01-21T21:49:02.739Z,23.42
2023-01-21T21:52:06.196Z,25.48
2023-01-21T21:55:14.484Z,27.33
2023-01-21T21:58:17.950Z,24.52
2023-01-21T22:01:24.991Z,25.20
2023-01-21T22:04:28.420Z,25.88
2023-01-21T22:07:32.247Z,26.63
2023-01-21T22:10:35.757Z,23.65
2023-01-21T22:13:40.362Z,32.72
2023-01-21T22:16:45.788Z,26.92
2023-01-21T22:19:49.354Z,28.13
2023-01-21T22:22:52.921Z,24.50
2023-01-21T22:25:56.568Z,26.85
2023-01-21T22:29:00.060Z,26.50
2023-01-21T22:34:18.067Z,27.25
2023-01-21T22:37:21.530Z,25.02
2023-01-21T22:40:25.249Z,25.40
2023-01-21T22:43:28.662Z,23.98
2023-01-21T22:46:33.759Z,23.42
2023-01-21T22:49:38.623Z,25.85
2023-01-21T22:52:42.498Z,20.63
2023-01-21T22:55:45.898Z,25.55
2023-01-21T22:58:49.610Z,23.67
2023-01-21T23:01:53.129Z,23.30
2023-01-21T23:04:57.967Z,24.33
2023-01-21T23:08:01.397Z,25.48
2023-01-21T23:11:06.461Z,26.60
2023-01-21T23:14:11.033Z,25.45
2023-01-21T23:17:16.643Z,31.27
2023-01-21T23:20:22.012Z,34.38
2023-01-21T23:23:25.781Z,30.65
2023-01-21T23:26:29.207Z,34.92
2023-01-21T23:29:32.608Z,39.80
2023-01-21T23:32:36.039Z,36.00
2023-01-21T23:35:41.020Z,22.67
2023-01-21T23:38:45.081Z,83.60
2023-01-21T23:41:48.678Z,47.30
2023-01-21T23:44:52.265Z,24.48
2023-01-21T23:47:55.884Z,22.63
2023-01-21T23:51:04.748Z,31.60
2023-01-21T23:54:08.408Z,28.10
2023-01-21T23:57:12.746Z,23.67
